sensor_id;sensor_type;location;lat;lon;timestamp;temperature;humidity
18085;DHT22;9169;44.492;11.372;2023-08-01T00:01:02;28.90;52.60
18085;DHT22;9169;44.492;11.372;2023-08-01T00:03:31;28.80;52.90
18085;DHT22;9169;44.492;11.372;2023-08-01T00:06:00;28.80;52.70
18085;DHT22;9169;44.492;11.372;2023-08-01T00:08:30;28.70;52.30
18085;DHT22;9169;44.492;11.372;2023-08-01T00:10:59;28.70;52.20
18085;DHT22;9169;44.492;11.372;2023-08-01T00:13:27;28.60;51.90
18085;DHT22;9169;44.492;11.372;2023-08-01T00:15:56;28.60;51.70
18085;DHT22;9169;44.492;11.372;2023-08-01T00:18:31;28.60;52.10
18085;DHT22;9169;44.492;11.372;2023-08-01T00:20:59;28.60;52.10
18085;DHT22;9169;44.492;11.372;2023-08-01T00:23:28;28.60;52.10
18085;DHT22;9169;44.492;11.372;2023-08-01T00:25:58;28.60;52.10
18085;DHT22;9169;44.492;11.372;2023-08-01T00:28:27;28.60;52.00
18085;DHT22;9169;44.492;11.372;2023-08-01T00:31:02;28.60;52.10
18085;DHT22;9169;44.492;11.372;2023-08-01T00:33:31;28.60;52.60
18085;DHT22;9169;44.492;11.372;2023-08-01T00:35:59;28.60;52.40
18085;DHT22;9169;44.492;11.372;2023-08-01T00:38:28;28.60;52.40
18085;DHT22;9169;44.492;11.372;2023-08-01T00:40:58;28.60;52.60
18085;DHT22;9169;44.492;11.372;2023-08-01T00:43:26;28.50;52.40
18085;DHT22;9169;44.492;11.372;2023-08-01T00:45:59;28.50;52.30
18085;DHT22;9169;44.492;11.372;2023-08-01T00:48:28;28.50;52.10
18085;DHT22;9169;44.492;11.372;2023-08-01T00:50:59;28.50;51.50
18085;DHT22;9169;44.492;11.372;2023-08-01T00:53:29;28.40;51.10
18085;DHT22;9169;44.492;11.372;2023-08-01T00:55:59;28.40;50.80
18085;DHT22;9169;44.492;11.372;2023-08-01T00:58:28;28.40;50.70
18085;DHT22;9169;44.492;11.372;2023-08-01T01:00:56;28.40;50.50
18085;DHT22;9169;44.492;11.372;2023-08-01T01:03:26;28.30;50.10
18085;DHT22;9169;44.492;11.372;2023-08-01T01:06:00;28.30;50.00
18085;DHT22;9169;44.492;11.372;2023-08-01T01:08:30;28.30;50.10
18085;DHT22;9169;44.492;11.372;2023-08-01T01:11:00;28.30;50.00
18085;DHT22;9169;44.492;11.372;2023-08-01T01:13:29;28.20;49.70
18085;DHT22;9169;44.492;11.372;2023-08-01T01:15:57;28.20;49.50
18085;DHT22;9169;44.492;11.372;2023-08-01T01:18:26;28.20;49.20
18085;DHT22;9169;44.492;11.372;2023-08-01T01:20:56;28.20;49.00
18085;DHT22;9169;44.492;11.372;2023-08-01T01:23:25;28.10;49.40
18085;DHT22;9169;44.492;11.372;2023-08-01T01:25:56;28.10;48.70
18085;DHT22;9169;44.492;11.372;2023-08-01T01:28:26;28.10;48.50
18085;DHT22;9169;44.492;11.372;2023-08-01T01:30:56;28.10;48.40
18085;DHT22;9169;44.492;11.372;2023-08-01T01:33:26;28.10;48.20
18085;DHT22;9169;44.492;11.372;2023-08-01T01:35:56;28.10;48.20
18085;DHT22;9169;44.492;11.372;2023-08-01T01:38:25;28.00;48.30
18085;DHT22;9169;44.492;11.372;2023-08-01T01:40:54;28.00;48.20
18085;DHT22;9169;44.492;11.372;2023-08-01T01:43:22;28.00;48.10
18085;DHT22;9169;44.492;11.372;2023-08-01T01:45:51;28.00;48.40
18085;DHT22;9169;44.492;11.372;2023-08-01T01:48:20;28.00;48.60
18085;DHT22;9169;44.492;11.372;2023-08-01T01:50:48;27.90;48.60
18085;DHT22;9169;44.492;11.372;2023-08-01T01:53:18;27.90;49.20
18085;DHT22;9169;44.492;11.372;2023-08-01T01:55:48;27.90;49.40
18085;DHT22;9169;44.492;11.372;2023-08-01T01:58:21;27.80;49.40
18085;DHT22;9169;44.492;11.372;2023-08-01T02:00:50;27.80;49.30
18085;DHT22;9169;44.492;11.372;2023-08-01T02:03:18;27.80;49.20
18085;DHT22;9169;44.492;11.372;2023-08-01T02:05:47;27.80;49.20
18085;DHT22;9169;44.492;11.372;2023-08-01T02:08:19;27.80;49.30
18085;DHT22;9169;44.492;11.372;2023-08-01T02:10:48;27.80;49.60
18085;DHT22;9169;44.492;11.372;2023-08-01T02:13:17;27.80;49.60
18085;DHT22;9169;44.492;11.372;2023-08-01T02:15:45;27.70;49.80
18085;DHT22;9169;44.492;11.372;2023-08-01T02:18:14;27.70;49.60
18085;DHT22;9169;44.492;11.372;2023-08-01T02:20:42;27.80;49.50
18085;DHT22;9169;44.492;11.372;2023-08-01T02:23:11;27.70;49.90
18085;DHT22;9169;44.492;11.372;2023-08-01T02:25:43;27.70;49.20
18085;DHT22;9169;44.492;11.372;2023-08-01T02:28:12;27.70;49.30
18085;DHT22;9169;44.492;11.372;2023-08-01T02:30:40;27.70;49.50
18085;DHT22;9169;44.492;11.372;2023-08-01T02:33:08;27.70;49.50
18085;DHT22;9169;44.492;11.372;2023-08-01T02:35:37;27.60;49.30
18085;DHT22;9169;44.492;11.372;2023-08-01T02:38:06;27.60;49.20
18085;DHT22;9169;44.492;11.372;2023-08-01T02:40:34;27.60;49.20
18085;DHT22;9169;44.492;11.372;2023-08-01T02:43:04;27.60;49.00
18085;DHT22;9169;44.492;11.372;2023-08-01T02:45:33;27.60;49.10
18085;DHT22;9169;44.492;11.372;2023-08-01T02:48:02;27.60;49.00
18085;DHT22;9169;44.492;11.372;2023-08-01T02:50:30;27.60;49.00
18085;DHT22;9169;44.492;11.372;2023-08-01T02:52:59;27.60;48.80
18085;DHT22;9169;44.492;11.372;2023-08-01T02:55:28;27.60;48.50
18085;DHT22;9169;44.492;11.372;2023-08-01T02:57:56;27.60;48.00
18085;DHT22;9169;44.492;11.372;2023-08-01T03:00:27;27.60;48.00
18085;DHT22;9169;44.492;11.372;2023-08-01T03:02:55;27.60;48.20
18085;DHT22;9169;44.492;11.372;2023-08-01T03:05:24;27.60;48.50
18085;DHT22;9169;44.492;11.372;2023-08-01T03:07:53;27.60;48.50
18085;DHT22;9169;44.492;11.372;2023-08-01T03:10:22;27.50;48.40
18085;DHT22;9169;44.492;11.372;2023-08-01T03:12:56;27.50;48.30
18085;DHT22;9169;44.492;11.372;2023-08-01T03:15:28;27.50;48.30
18085;DHT22;9169;44.492;11.372;2023-08-01T03:17:57;27.50;48.50
18085;DHT22;9169;44.492;11.372;2023-08-01T03:20:26;27.50;48.70
18085;DHT22;9169;44.492;11.372;2023-08-01T03:22:54;27.50;48.80
18085;DHT22;9169;44.492;11.372;2023-08-01T03:25:23;27.50;49.10
18085;DHT22;9169;44.492;11.372;2023-08-01T03:27:52;27.50;49.20
18085;DHT22;9169;44.492;11.372;2023-08-01T03:30:21;27.50;49.30
18085;DHT22;9169;44.492;11.372;2023-08-01T03:32:52;27.40;49.40
18085;DHT22;9169;44.492;11.372;2023-08-01T03:35:20;27.30;48.80
18085;DHT22;9169;44.492;11.372;2023-08-01T03:37:51;27.30;48.40
18085;DHT22;9169;44.492;11.372;2023-08-01T03:40:20;27.30;48.20
18085;DHT22;9169;44.492;11.372;2023-08-01T03:42:50;27.30;48.50
18085;DHT22;9169;44.492;11.372;2023-08-01T03:45:19;27.30;48.50
18085;DHT22;9169;44.492;11.372;2023-08-01T03:47:47;27.20;47.50
18085;DHT22;9169;44.492;11.372;2023-08-01T03:50:18;27.20;47.10
18085;DHT22;9169;44.492;11.372;2023-08-01T03:52:49;27.20;47.00
18085;DHT22;9169;44.492;11.372;2023-08-01T03:55:18;27.20;46.70
18085;DHT22;9169;44.492;11.372;2023-08-01T03:57:47;27.20;46.60
18085;DHT22;9169;44.492;11.372;2023-08-01T04:00:15;27.20;46.70
18085;DHT22;9169;44.492;11.372;2023-08-01T04:02:45;27.10;46.60
18085;DHT22;9169;44.492;11.372;2023-08-01T04:05:15;27.10;46.60
18085;DHT22;9169;44.492;11.372;2023-08-01T04:07:44;27.10;46.50
18085;DHT22;9169;44.492;11.372;2023-08-01T04:10:13;27.10;46.50
18085;DHT22;9169;44.492;11.372;2023-08-01T04:12:42;27.20;46.50
18085;DHT22;9169;44.492;11.372;2023-08-01T04:15:11;27.20;46.40
18085;DHT22;9169;44.492;11.372;2023-08-01T04:17:40;27.20;46.40
18085;DHT22;9169;44.492;11.372;2023-08-01T04:20:09;27.20;46.20
18085;DHT22;9169;44.492;11.372;2023-08-01T04:22:38;27.20;46.30
18085;DHT22;9169;44.492;11.372;2023-08-01T04:25:08;27.20;46.30
18085;DHT22;9169;44.492;11.372;2023-08-01T04:27:37;27.20;46.40
18085;DHT22;9169;44.492;11.372;2023-08-01T04:30:06;27.20;46.60
18085;DHT22;9169;44.492;11.372;2023-08-01T04:32:35;27.20;46.80
18085;DHT22;9169;44.492;11.372;2023-08-01T04:35:05;27.20;47.00
18085;DHT22;9169;44.492;11.372;2023-08-01T04:37:33;27.20;47.00
18085;DHT22;9169;44.492;11.372;2023-08-01T04:40:03;27.20;47.10
18085;DHT22;9169;44.492;11.372;2023-08-01T04:42:33;27.20;47.00
18085;DHT22;9169;44.492;11.372;2023-08-01T04:45:02;27.20;46.80
18085;DHT22;9169;44.492;11.372;2023-08-01T04:47:33;27.20;46.60
18085;DHT22;9169;44.492;11.372;2023-08-01T04:50:02;27.20;46.60
18085;DHT22;9169;44.492;11.372;2023-08-01T04:52:31;27.20;46.40
18085;DHT22;9169;44.492;11.372;2023-08-01T04:54:59;27.10;46.20
18085;DHT22;9169;44.492;11.372;2023-08-01T04:57:28;27.10;46.00
18085;DHT22;9169;44.492;11.372;2023-08-01T04:59:58;27.10;45.90
18085;DHT22;9169;44.492;11.372;2023-08-01T05:02:28;27.10;46.00
18085;DHT22;9169;44.492;11.372;2023-08-01T05:04:56;27.10;46.10
18085;DHT22;9169;44.492;11.372;2023-08-01T05:07:25;27.10;46.20
18085;DHT22;9169;44.492;11.372;2023-08-01T05:09:55;27.10;46.20
18085;DHT22;9169;44.492;11.372;2023-08-01T05:12:23;27.10;46.30
18085;DHT22;9169;44.492;11.372;2023-08-01T05:14:52;27.10;46.40
18085;DHT22;9169;44.492;11.372;2023-08-01T05:17:21;27.10;46.40
18085;DHT22;9169;44.492;11.372;2023-08-01T05:19:50;27.20;46.80
18085;DHT22;9169;44.492;11.372;2023-08-01T05:22:18;27.20;47.00
18085;DHT22;9169;44.492;11.372;2023-08-01T05:24:47;27.20;46.90
18085;DHT22;9169;44.492;11.372;2023-08-01T05:27:16;27.20;46.70
18085;DHT22;9169;44.492;11.372;2023-08-01T05:29:44;27.30;46.70
18085;DHT22;9169;44.492;11.372;2023-08-01T05:32:13;27.30;46.70
18085;DHT22;9169;44.492;11.372;2023-08-01T05:34:43;27.30;46.70
18085;DHT22;9169;44.492;11.372;2023-08-01T05:37:11;27.30;46.90
18085;DHT22;9169;44.492;11.372;2023-08-01T05:39:40;27.30;46.80
18085;DHT22;9169;44.492;11.372;2023-08-01T05:42:08;27.40;46.70
18085;DHT22;9169;44.492;11.372;2023-08-01T05:44:37;27.40;46.90
18085;DHT22;9169;44.492;11.372;2023-08-01T05:47:05;27.40;46.90
18085;DHT22;9169;44.492;11.372;2023-08-01T05:49:34;27.40;47.00
18085;DHT22;9169;44.492;11.372;2023-08-01T05:52:05;27.50;47.30
18085;DHT22;9169;44.492;11.372;2023-08-01T05:54:34;27.50;47.40
18085;DHT22;9169;44.492;11.372;2023-08-01T05:57:02;27.60;47.40
18085;DHT22;9169;44.492;11.372;2023-08-01T05:59:31;27.60;47.40
18085;DHT22;9169;44.492;11.372;2023-08-01T06:02:00;27.60;47.30
18085;DHT22;9169;44.492;11.372;2023-08-01T06:04:28;27.70;47.30
18085;DHT22;9169;44.492;11.372;2023-08-01T06:06:56;27.80;47.40
18085;DHT22;9169;44.492;11.372;2023-08-01T06:09:27;27.80;47.30
18085;DHT22;9169;44.492;11.372;2023-08-01T06:11:56;27.90;47.20
18085;DHT22;9169;44.492;11.372;2023-08-01T06:14:24;27.90;47.30
18085;DHT22;9169;44.492;11.372;2023-08-01T06:16:53;27.90;47.40
18085;DHT22;9169;44.492;11.372;2023-08-01T06:19:22;27.90;47.30
18085;DHT22;9169;44.492;11.372;2023-08-01T06:21:50;28.00;47.20
18085;DHT22;9169;44.492;11.372;2023-08-01T06:24:19;28.00;47.70
18085;DHT22;9169;44.492;11.372;2023-08-01T06:26:48;28.10;47.20
18085;DHT22;9169;44.492;11.372;2023-08-01T06:29:17;28.20;47.30
18085;DHT22;9169;44.492;11.372;2023-08-01T06:31:45;28.30;47.40
18085;DHT22;9169;44.492;11.372;2023-08-01T06:34:14;28.30;47.20
18085;DHT22;9169;44.492;11.372;2023-08-01T06:36:42;28.40;46.60
18085;DHT22;9169;44.492;11.372;2023-08-01T06:39:11;28.50;46.40
18085;DHT22;9169;44.492;11.372;2023-08-01T06:41:39;28.60;46.60
18085;DHT22;9169;44.492;11.372;2023-08-01T06:44:09;28.60;46.60
18085;DHT22;9169;44.492;11.372;2023-08-01T06:46:38;28.70;46.70
18085;DHT22;9169;44.492;11.372;2023-08-01T06:49:06;28.70;45.90
18085;DHT22;9169;44.492;11.372;2023-08-01T06:51:36;28.80;44.80
18085;DHT22;9169;44.492;11.372;2023-08-01T06:54:04;28.80;44.40
18085;DHT22;9169;44.492;11.372;2023-08-01T06:56:32;28.90;44.90
18085;DHT22;9169;44.492;11.372;2023-08-01T06:59:01;28.90;45.30
18085;DHT22;9169;44.492;11.372;2023-08-01T07:01:32;28.90;45.80
18085;DHT22;9169;44.492;11.372;2023-08-01T07:04:04;29.00;45.60
18085;DHT22;9169;44.492;11.372;2023-08-01T07:06:34;29.10;45.50
18085;DHT22;9169;44.492;11.372;2023-08-01T07:09:02;29.20;45.50
18085;DHT22;9169;44.492;11.372;2023-08-01T07:11:31;29.20;45.10
18085;DHT22;9169;44.492;11.372;2023-08-01T07:14:00;29.20;45.20
18085;DHT22;9169;44.492;11.372;2023-08-01T07:16:28;29.30;45.60
18085;DHT22;9169;44.492;11.372;2023-08-01T07:19:00;29.30;45.10
18085;DHT22;9169;44.492;11.372;2023-08-01T07:21:28;29.40;45.20
18085;DHT22;9169;44.492;11.372;2023-08-01T07:23:57;29.50;45.30
18085;DHT22;9169;44.492;11.372;2023-08-01T07:26:26;29.50;45.20
18085;DHT22;9169;44.492;11.372;2023-08-01T07:28:55;29.60;45.40
18085;DHT22;9169;44.492;11.372;2023-08-01T07:31:24;29.60;45.20
18085;DHT22;9169;44.492;11.372;2023-08-01T07:33:58;29.60;45.30
18085;DHT22;9169;44.492;11.372;2023-08-01T07:36:27;29.60;45.30
18085;DHT22;9169;44.492;11.372;2023-08-01T07:38:56;29.60;45.30
18085;DHT22;9169;44.492;11.372;2023-08-01T07:41:24;29.70;45.30
18085;DHT22;9169;44.492;11.372;2023-08-01T07:43:53;29.70;45.20
18085;DHT22;9169;44.492;11.372;2023-08-01T07:46:21;29.80;45.00
18085;DHT22;9169;44.492;11.372;2023-08-01T07:48:50;29.80;45.10
18085;DHT22;9169;44.492;11.372;2023-08-01T07:51:22;29.90;45.10
18085;DHT22;9169;44.492;11.372;2023-08-01T07:53:52;29.90;45.00
18085;DHT22;9169;44.492;11.372;2023-08-01T07:56:21;30.00;45.40
18085;DHT22;9169;44.492;11.372;2023-08-01T07:58:50;29.90;45.40
18085;DHT22;9169;44.492;11.372;2023-08-01T08:01:19;30.00;45.40
18085;DHT22;9169;44.492;11.372;2023-08-01T08:03:47;30.00;45.30
18085;DHT22;9169;44.492;11.372;2023-08-01T08:06:16;30.00;45.30
18085;DHT22;9169;44.492;11.372;2023-08-01T08:08:46;29.90;45.10
18085;DHT22;9169;44.492;11.372;2023-08-01T08:11:14;30.00;45.20
18085;DHT22;9169;44.492;11.372;2023-08-01T08:13:43;30.00;45.10
18085;DHT22;9169;44.492;11.372;2023-08-01T08:16:12;30.00;45.60
18085;DHT22;9169;44.492;11.372;2023-08-01T08:18:40;30.00;45.10
18085;DHT22;9169;44.492;11.372;2023-08-01T08:21:10;30.00;45.20
18085;DHT22;9169;44.492;11.372;2023-08-01T08:23:39;30.00;45.30
18085;DHT22;9169;44.492;11.372;2023-08-01T08:26:09;30.10;45.20
18085;DHT22;9169;44.492;11.372;2023-08-01T08:28:37;30.00;45.20
18085;DHT22;9169;44.492;11.372;2023-08-01T08:31:07;30.10;45.30
18085;DHT22;9169;44.492;11.372;2023-08-01T08:33:35;30.10;45.50
18085;DHT22;9169;44.492;11.372;2023-08-01T08:36:04;30.20;45.50
18085;DHT22;9169;44.492;11.372;2023-08-01T08:38:32;30.20;45.20
18085;DHT22;9169;44.492;11.372;2023-08-01T08:41:09;30.30;45.10
18085;DHT22;9169;44.492;11.372;2023-08-01T08:43:37;30.30;45.10
18085;DHT22;9169;44.492;11.372;2023-08-01T08:46:08;30.30;45.20
18085;DHT22;9169;44.492;11.372;2023-08-01T08:48:39;30.40;45.30
18085;DHT22;9169;44.492;11.372;2023-08-01T08:51:09;30.40;45.30
18085;DHT22;9169;44.492;11.372;2023-08-01T08:53:38;30.50;45.30
18085;DHT22;9169;44.492;11.372;2023-08-01T08:56:10;30.50;45.30
18085;DHT22;9169;44.492;11.372;2023-08-01T08:58:39;30.60;45.10
18085;DHT22;9169;44.492;11.372;2023-08-01T09:01:08;30.60;45.20
18085;DHT22;9169;44.492;11.372;2023-08-01T09:03:36;30.60;45.10
18085;DHT22;9169;44.492;11.372;2023-08-01T09:06:12;30.70;45.00
18085;DHT22;9169;44.492;11.372;2023-08-01T09:08:47;30.70;45.00
18085;DHT22;9169;44.492;11.372;2023-08-01T09:11:18;30.70;44.70
18085;DHT22;9169;44.492;11.372;2023-08-01T09:13:47;30.70;45.00
18085;DHT22;9169;44.492;11.372;2023-08-01T09:16:16;30.70;44.90
18085;DHT22;9169;44.492;11.372;2023-08-01T09:18:49;30.70;44.90
18085;DHT22;9169;44.492;11.372;2023-08-01T09:21:18;30.70;44.70
18085;DHT22;9169;44.492;11.372;2023-08-01T09:23:47;30.70;44.60
18085;DHT22;9169;44.492;11.372;2023-08-01T09:26:15;30.70;44.50
18085;DHT22;9169;44.492;11.372;2023-08-01T09:28:55;30.70;44.60
18085;DHT22;9169;44.492;11.372;2023-08-01T09:31:26;30.70;44.50
18085;DHT22;9169;44.492;11.372;2023-08-01T09:33:57;30.70;44.60
18085;DHT22;9169;44.492;11.372;2023-08-01T09:36:26;30.80;44.70
18085;DHT22;9169;44.492;11.372;2023-08-01T09:38:58;30.80;44.60
18085;DHT22;9169;44.492;11.372;2023-08-01T09:41:28;30.90;44.70
18085;DHT22;9169;44.492;11.372;2023-08-01T09:43:58;31.00;44.70
18085;DHT22;9169;44.492;11.372;2023-08-01T09:46:27;31.00;44.40
18085;DHT22;9169;44.492;11.372;2023-08-01T09:49:06;31.10;44.20
18085;DHT22;9169;44.492;11.372;2023-08-01T09:51:46;31.10;44.10
18085;DHT22;9169;44.492;11.372;2023-08-01T09:54:16;31.30;44.50
18085;DHT22;9169;44.492;11.372;2023-08-01T09:56:46;31.40;44.70
18085;DHT22;9169;44.492;11.372;2023-08-01T09:59:19;31.50;44.40
18085;DHT22;9169;44.492;11.372;2023-08-01T10:01:50;31.70;44.50
18085;DHT22;9169;44.492;11.372;2023-08-01T10:04:19;31.80;44.10
18085;DHT22;9169;44.492;11.372;2023-08-01T10:06:53;31.90;43.90
18085;DHT22;9169;44.492;11.372;2023-08-01T10:09:23;32.00;43.60
18085;DHT22;9169;44.492;11.372;2023-08-01T10:11:56;32.10;43.60
18085;DHT22;9169;44.492;11.372;2023-08-01T10:14:26;32.30;43.50
18085;DHT22;9169;44.492;11.372;2023-08-01T10:16:56;32.40;43.20
18085;DHT22;9169;44.492;11.372;2023-08-01T10:19:25;32.50;43.20
18085;DHT22;9169;44.492;11.372;2023-08-01T10:21:54;32.60;43.00
18085;DHT22;9169;44.492;11.372;2023-08-01T10:24:24;32.70;42.90
18085;DHT22;9169;44.492;11.372;2023-08-01T10:26:54;32.80;42.90
18085;DHT22;9169;44.492;11.372;2023-08-01T10:29:34;33.00;42.90
18085;DHT22;9169;44.492;11.372;2023-08-01T10:32:06;33.20;42.60
18085;DHT22;9169;44.492;11.372;2023-08-01T10:34:35;33.30;42.40
18085;DHT22;9169;44.492;11.372;2023-08-01T10:37:06;33.50;42.70
18085;DHT22;9169;44.492;11.372;2023-08-01T10:39:35;33.50;42.40
18085;DHT22;9169;44.492;11.372;2023-08-01T10:42:04;33.70;42.30
18085;DHT22;9169;44.492;11.372;2023-08-01T10:44:45;33.90;42.50
18085;DHT22;9169;44.492;11.372;2023-08-01T10:47:14;34.30;42.10
18085;DHT22;9169;44.492;11.372;2023-08-01T10:49:43;34.60;41.90
18085;DHT22;9169;44.492;11.372;2023-08-01T10:52:16;34.70;40.90
18085;DHT22;9169;44.492;11.372;2023-08-01T10:54:45;34.80;40.50
18085;DHT22;9169;44.492;11.372;2023-08-01T10:57:17;34.80;40.70
18085;DHT22;9169;44.492;11.372;2023-08-01T10:59:47;34.90;40.60
18085;DHT22;9169;44.492;11.372;2023-08-01T11:02:20;35.30;41.10
18085;DHT22;9169;44.492;11.372;2023-08-01T11:04:57;35.90;40.70
18085;DHT22;9169;44.492;11.372;2023-08-01T11:07:26;36.70;40.00
18085;DHT22;9169;44.492;11.372;2023-08-01T11:10:06;37.30;39.30
18085;DHT22;9169;44.492;11.372;2023-08-01T11:12:36;37.60;39.00
18085;DHT22;9169;44.492;11.372;2023-08-01T11:15:08;37.90;38.50
18085;DHT22;9169;44.492;11.372;2023-08-01T11:17:37;38.20;38.10
18085;DHT22;9169;44.492;11.372;2023-08-01T11:20:07;38.40;36.00
18085;DHT22;9169;44.492;11.372;2023-08-01T11:22:37;38.30;35.40
18085;DHT22;9169;44.492;11.372;2023-08-01T11:25:06;37.90;35.40
18085;DHT22;9169;44.492;11.372;2023-08-01T11:27:34;37.50;36.00
18085;DHT22;9169;44.492;11.372;2023-08-01T11:30:03;37.30;36.50
18085;DHT22;9169;44.492;11.372;2023-08-01T11:32:35;37.40;36.40
18085;DHT22;9169;44.492;11.372;2023-08-01T11:35:04;37.60;36.30
18085;DHT22;9169;44.492;11.372;2023-08-01T11:37:33;38.00;35.80
18085;DHT22;9169;44.492;11.372;2023-08-01T11:40:04;38.40;35.70
18085;DHT22;9169;44.492;11.372;2023-08-01T11:42:33;38.60;36.00
18085;DHT22;9169;44.492;11.372;2023-08-01T11:45:10;39.00;36.40
18085;DHT22;9169;44.492;11.372;2023-08-01T11:47:46;39.30;35.70
18085;DHT22;9169;44.492;11.372;2023-08-01T11:50:20;39.70;35.30
18085;DHT22;9169;44.492;11.372;2023-08-01T11:52:52;39.90;35.10
18085;DHT22;9169;44.492;11.372;2023-08-01T11:55:25;40.00;35.20
18085;DHT22;9169;44.492;11.372;2023-08-01T11:57:55;40.10;34.60
18085;DHT22;9169;44.492;11.372;2023-08-01T12:00:26;40.20;34.50
18085;DHT22;9169;44.492;11.372;2023-08-01T12:03:06;40.00;34.00
18085;DHT22;9169;44.492;11.372;2023-08-01T12:05:35;39.70;34.10
18085;DHT22;9169;44.492;11.372;2023-08-01T12:08:10;39.70;34.80
18085;DHT22;9169;44.492;11.372;2023-08-01T12:10:39;39.70;34.70
18085;DHT22;9169;44.492;11.372;2023-08-01T12:13:19;39.70;34.60
18085;DHT22;9169;44.492;11.372;2023-08-01T12:15:49;39.50;34.50
18085;DHT22;9169;44.492;11.372;2023-08-01T12:18:23;39.50;35.00
18085;DHT22;9169;44.492;11.372;2023-08-01T12:20:55;39.70;34.20
18085;DHT22;9169;44.492;11.372;2023-08-01T12:23:24;39.90;34.90
18085;DHT22;9169;44.492;11.372;2023-08-01T12:25:52;40.40;34.70
18085;DHT22;9169;44.492;11.372;2023-08-01T12:28:21;40.70;34.40
18085;DHT22;9169;44.492;11.372;2023-08-01T12:30:49;41.00;34.40
18085;DHT22;9169;44.492;11.372;2023-08-01T12:33:18;41.50;34.00
18085;DHT22;9169;44.492;11.372;2023-08-01T12:35:48;41.90;33.60
18085;DHT22;9169;44.492;11.372;2023-08-01T12:38:17;42.10;33.20
18085;DHT22;9169;44.492;11.372;2023-08-01T12:40:45;42.40;32.70
18085;DHT22;9169;44.492;11.372;2023-08-01T12:43:14;42.60;32.40
18085;DHT22;9169;44.492;11.372;2023-08-01T12:45:44;42.70;32.60
18085;DHT22;9169;44.492;11.372;2023-08-01T12:48:13;42.70;32.00
18085;DHT22;9169;44.492;11.372;2023-08-01T12:50:44;42.50;31.90
18085;DHT22;9169;44.492;11.372;2023-08-01T12:53:14;42.40;31.60
18085;DHT22;9169;44.492;11.372;2023-08-01T12:55:43;42.40;31.60
18085;DHT22;9169;44.492;11.372;2023-08-01T12:58:12;42.50;32.00
18085;DHT22;9169;44.492;11.372;2023-08-01T13:00:43;42.80;31.50
18085;DHT22;9169;44.492;11.372;2023-08-01T13:03:12;43.00;31.70
18085;DHT22;9169;44.492;11.372;2023-08-01T13:05:41;43.20;32.00
18085;DHT22;9169;44.492;11.372;2023-08-01T13:08:11;43.50;31.70
18085;DHT22;9169;44.492;11.372;2023-08-01T13:10:41;43.60;31.60
18085;DHT22;9169;44.492;11.372;2023-08-01T13:13:12;43.50;31.30
18085;DHT22;9169;44.492;11.372;2023-08-01T13:15:40;43.30;30.90
18085;DHT22;9169;44.492;11.372;2023-08-01T13:18:09;43.10;31.20
18085;DHT22;9169;44.492;11.372;2023-08-01T13:20:38;43.00;31.00
18085;DHT22;9169;44.492;11.372;2023-08-01T13:23:06;42.80;30.50
18085;DHT22;9169;44.492;11.372;2023-08-01T13:25:35;42.50;30.20
18085;DHT22;9169;44.492;11.372;2023-08-01T13:28:05;42.20;30.50
18085;DHT22;9169;44.492;11.372;2023-08-01T13:30:33;41.90;30.90
18085;DHT22;9169;44.492;11.372;2023-08-01T13:33:02;41.50;31.00
18085;DHT22;9169;44.492;11.372;2023-08-01T13:35:33;41.20;30.90
18085;DHT22;9169;44.492;11.372;2023-08-01T13:38:01;40.90;31.50
18085;DHT22;9169;44.492;11.372;2023-08-01T13:40:31;40.80;31.50
18085;DHT22;9169;44.492;11.372;2023-08-01T13:43:00;40.70;31.40
18085;DHT22;9169;44.492;11.372;2023-08-01T13:45:31;40.70;31.50
18085;DHT22;9169;44.492;11.372;2023-08-01T13:48:00;40.70;31.60
18085;DHT22;9169;44.492;11.372;2023-08-01T13:50:29;40.50;32.10
18085;DHT22;9169;44.492;11.372;2023-08-01T13:52:58;40.50;32.40
18085;DHT22;9169;44.492;11.372;2023-08-01T13:55:26;40.40;33.10
18085;DHT22;9169;44.492;11.372;2023-08-01T13:57:55;40.30;32.50
18085;DHT22;9169;44.492;11.372;2023-08-01T14:00:23;40.20;33.10
18085;DHT22;9169;44.492;11.372;2023-08-01T14:02:53;40.10;32.70
18085;DHT22;9169;44.492;11.372;2023-08-01T14:05:24;40.10;32.60
18085;DHT22;9169;44.492;11.372;2023-08-01T14:07:53;40.20;32.40
18085;DHT22;9169;44.492;11.372;2023-08-01T14:10:22;40.40;32.20
18085;DHT22;9169;44.492;11.372;2023-08-01T14:12:50;40.40;32.40
18085;DHT22;9169;44.492;11.372;2023-08-01T14:15:19;40.20;32.00
18085;DHT22;9169;44.492;11.372;2023-08-01T14:17:48;40.00;32.10
18085;DHT22;9169;44.492;11.372;2023-08-01T14:20:18;39.90;32.20
18085;DHT22;9169;44.492;11.372;2023-08-01T14:22:46;39.80;32.70
18085;DHT22;9169;44.492;11.372;2023-08-01T14:25:15;39.90;33.10
18085;DHT22;9169;44.492;11.372;2023-08-01T14:27:43;40.10;31.90
18085;DHT22;9169;44.492;11.372;2023-08-01T14:30:11;40.30;31.60
18085;DHT22;9169;44.492;11.372;2023-08-01T14:32:40;40.10;31.30
18085;DHT22;9169;44.492;11.372;2023-08-01T14:35:09;39.80;31.50
18085;DHT22;9169;44.492;11.372;2023-08-01T14:37:39;39.50;31.50
18085;DHT22;9169;44.492;11.372;2023-08-01T14:40:10;39.20;31.30
18085;DHT22;9169;44.492;11.372;2023-08-01T14:42:38;38.80;31.50
18085;DHT22;9169;44.492;11.372;2023-08-01T14:45:08;38.40;31.40
18085;DHT22;9169;44.492;11.372;2023-08-01T14:47:37;38.10;31.60
18085;DHT22;9169;44.492;11.372;2023-08-01T14:50:06;37.90;31.70
18085;DHT22;9169;44.492;11.372;2023-08-01T14:52:35;37.60;32.10
18085;DHT22;9169;44.492;11.372;2023-08-01T14:55:06;37.40;32.20
18085;DHT22;9169;44.492;11.372;2023-08-01T14:57:35;37.20;32.10
18085;DHT22;9169;44.492;11.372;2023-08-01T15:00:04;37.10;32.30
18085;DHT22;9169;44.492;11.372;2023-08-01T15:02:36;36.90;32.40
18085;DHT22;9169;44.492;11.372;2023-08-01T15:05:05;36.70;32.50
18085;DHT22;9169;44.492;11.372;2023-08-01T15:07:35;36.60;33.00
18085;DHT22;9169;44.492;11.372;2023-08-01T15:10:08;36.50;33.10
18085;DHT22;9169;44.492;11.372;2023-08-01T15:12:37;36.40;33.20
18085;DHT22;9169;44.492;11.372;2023-08-01T15:15:07;36.40;33.30
18085;DHT22;9169;44.492;11.372;2023-08-01T15:17:36;36.30;33.40
18085;DHT22;9169;44.492;11.372;2023-08-01T15:20:06;36.30;33.50
18085;DHT22;9169;44.492;11.372;2023-08-01T15:22:35;36.30;33.70
18085;DHT22;9169;44.492;11.372;2023-08-01T15:25:05;36.30;33.50
18085;DHT22;9169;44.492;11.372;2023-08-01T15:27:35;36.20;33.60
18085;DHT22;9169;44.492;11.372;2023-08-01T15:30:04;36.10;33.50
18085;DHT22;9169;44.492;11.372;2023-08-01T15:32:33;36.00;33.50
18085;DHT22;9169;44.492;11.372;2023-08-01T15:35:02;35.90;33.40
18085;DHT22;9169;44.492;11.372;2023-08-01T15:37:30;35.80;33.50
18085;DHT22;9169;44.492;11.372;2023-08-01T15:39:59;35.80;33.70
18085;DHT22;9169;44.492;11.372;2023-08-01T15:42:30;35.90;33.70
18085;DHT22;9169;44.492;11.372;2023-08-01T15:45:00;36.00;33.60